createdAt,value
2022-09-30T00:01:34.793Z,92.71
2022-09-30T00:04:02.039Z,92.69
2022-09-30T00:06:30.216Z,91.72
2022-09-30T00:08:57.856Z,92.72
2022-09-30T00:11:28.625Z,92.04
2022-09-30T00:13:56.087Z,92.64
2022-09-30T00:16:24.230Z,92.45
2022-09-30T00:18:51.188Z,92.28
2022-09-30T00:21:18.041Z,92.48
2022-09-30T00:23:45.651Z,92.20
2022-09-30T00:26:15.001Z,92.25
2022-09-30T00:28:42.979Z,92.01
2022-09-30T00:31:14.457Z,92.78
2022-09-30T00:33:42.023Z,92.48
2022-09-30T00:36:08.956Z,92.18
2022-09-30T00:38:35.445Z,92.48
2022-09-30T00:41:03.768Z,92.43
2022-09-30T00:43:51.555Z,92.20
2022-09-30T00:46:27.159Z,92.09
2022-09-30T00:48:55.368Z,92.35
2022-09-30T00:51:32.730Z,92.39
2022-09-30T00:54:03.143Z,91.82
2022-09-30T00:56:33.832Z,92.48
2022-09-30T00:59:29.759Z,92.40
2022-09-30T01:01:56.304Z,92.19
2022-09-30T01:04:25.625Z,92.18
2022-09-30T01:06:52.365Z,92.42
2022-09-30T01:09:19.885Z,92.14
2022-09-30T01:11:47.456Z,92.52
2022-09-30T01:14:27.430Z,92.52
2022-09-30T01:17:03.033Z,92.40
2022-09-30T01:19:52.280Z,92.39
2022-09-30T01:22:33.627Z,92.37
2022-09-30T01:25:30.746Z,92.81
2022-09-30T01:28:18.481Z,92.24
2022-09-30T01:30:53.202Z,92.79
2022-09-30T01:33:22.621Z,92.95
2022-09-30T01:36:16.575Z,93.25
2022-09-30T01:39:02.297Z,92.36
2022-09-30T01:41:42.320Z,92.81
2022-09-30T01:44:27.805Z,92.69
2022-09-30T01:47:17.366Z,92.54
2022-09-30T01:49:49.663Z,92.74
2022-09-30T01:52:35.730Z,92.66
2022-09-30T01:55:20.341Z,92.53
2022-09-30T01:58:15.314Z,92.73
2022-09-30T02:00:45.992Z,92.25
2022-09-30T02:03:18.271Z,92.41
2022-09-30T02:06:07.960Z,92.21
2022-09-30T02:09:00.013Z,92.70
2022-09-30T02:11:29.987Z,92.20
2022-09-30T02:14:04.390Z,92.62
2022-09-30T02:17:02.464Z,92.69
2022-09-30T02:19:47.668Z,92.48
2022-09-30T02:22:18.663Z,91.98
2022-09-30T02:24:49.112Z,92.24
2022-09-30T02:27:21.135Z,92.51
2022-09-30T02:29:55.771Z,92.30
2022-09-30T02:32:48.898Z,92.16
2022-09-30T02:35:29.001Z,92.60
2022-09-30T02:38:19.236Z,91.98
2022-09-30T02:40:52.413Z,91.97
2022-09-30T02:43:20.673Z,91.87
2022-09-30T02:46:08.404Z,92.15
2022-09-30T02:48:50.074Z,92.35
2022-09-30T02:51:27.379Z,91.88
2022-09-30T02:54:15.303Z,92.20
2022-09-30T02:56:54.319Z,92.29
2022-09-30T02:59:22.928Z,92.06
2022-09-30T03:01:49.850Z,92.17
2022-09-30T03:04:25.576Z,91.86
2022-09-30T03:06:52.232Z,91.99
2022-09-30T03:09:18.863Z,91.93
2022-09-30T03:11:47.720Z,91.76
2022-09-30T03:14:24.238Z,92.10
2022-09-30T03:17:17.366Z,91.74
2022-09-30T03:19:55.981Z,92.09
2022-09-30T03:22:28.622Z,92.01
2022-09-30T03:25:27.657Z,92.54
2022-09-30T03:28:00.374Z,92.50
2022-09-30T03:30:28.821Z,92.41
2022-09-30T03:33:20.488Z,91.98
2022-09-30T03:36:27.093Z,92.62
2022-09-30T03:39:24.296Z,92.62
2022-09-30T03:42:23.222Z,92.53
2022-09-30T03:45:04.929Z,92.61
2022-09-30T03:47:36.576Z,92.62
2022-09-30T03:50:07.536Z,92.45
2022-09-30T03:52:35.276Z,92.45
2022-09-30T03:55:04.871Z,92.83
2022-09-30T03:57:31.646Z,92.66
2022-09-30T03:59:58.299Z,92.46
2022-09-30T04:02:25.896Z,92.47
2022-09-30T04:04:52.663Z,92.57
2022-09-30T04:07:19.719Z,92.50
2022-09-30T04:09:46.323Z,92.68
2022-09-30T04:12:12.953Z,92.53
2022-09-30T04:14:39.474Z,93.02
2022-09-30T04:17:06.383Z,92.76
2022-09-30T04:19:38.244Z,92.82
2022-09-30T04:22:04.714Z,92.46
2022-09-30T04:24:31.160Z,92.59
2022-09-30T04:26:57.735Z,92.76
2022-09-30T04:29:24.642Z,92.93
2022-09-30T04:31:51.192Z,92.80
2022-09-30T04:34:17.860Z,92.38
2022-09-30T04:36:44.431Z,92.39
2022-09-30T04:39:10.891Z,92.58
2022-09-30T04:41:38.551Z,92.42
2022-09-30T04:44:07.902Z,92.17
2022-09-30T04:46:36.826Z,92.67
2022-09-30T04:49:08.734Z,92.31
2022-09-30T04:51:36.660Z,92.53
2022-09-30T04:54:03.430Z,92.31
2022-09-30T04:56:30.166Z,92.80
2022-09-30T04:58:56.712Z,92.99
2022-09-30T05:01:23.438Z,92.32
2022-09-30T05:03:50.731Z,92.63
2022-09-30T05:06:17.396Z,92.77
2022-09-30T05:08:46.076Z,92.65
2022-09-30T05:11:18.575Z,92.88
2022-09-30T05:13:46.057Z,92.65
2022-09-30T05:16:13.789Z,92.79
2022-09-30T05:18:42.683Z,92.69
2022-09-30T05:21:10.076Z,92.89
2022-09-30T05:23:36.844Z,92.80
2022-09-30T05:26:03.848Z,92.87
2022-09-30T05:28:32.716Z,92.83
2022-09-30T05:31:05.070Z,92.74
2022-09-30T05:33:33.220Z,92.85
2022-09-30T05:36:01.770Z,93.06
2022-09-30T05:38:28.869Z,92.52
2022-09-30T05:40:55.600Z,92.37
2022-09-30T05:43:22.272Z,92.43
2022-09-30T05:45:58.408Z,92.88
2022-09-30T05:48:26.178Z,92.66
2022-09-30T05:50:57.674Z,93.02
2022-09-30T05:53:24.784Z,92.58
2022-09-30T05:55:51.889Z,92.93
2022-09-30T05:58:19.472Z,92.95
2022-09-30T06:00:47.595Z,92.94
2022-09-30T06:03:15.335Z,92.52
2022-09-30T06:05:42.070Z,92.58
2022-09-30T06:08:10.747Z,92.44
2022-09-30T06:10:44.419Z,92.09
2022-09-30T06:13:11.258Z,92.20
2022-09-30T06:15:39.633Z,92.34
2022-09-30T06:18:06.594Z,92.71
2022-09-30T06:20:33.416Z,92.14
2022-09-30T06:23:00.929Z,92.15
2022-09-30T06:25:31.168Z,91.71
2022-09-30T06:27:58.495Z,91.77
2022-09-30T06:30:25.501Z,91.84
2022-09-30T06:32:54.112Z,91.03
2022-09-30T06:35:21.817Z,91.00
2022-09-30T06:37:51.496Z,90.66
2022-09-30T06:40:18.372Z,90.90
2022-09-30T06:42:44.830Z,90.77
2022-09-30T06:45:22.814Z,90.13
2022-09-30T06:48:01.085Z,90.09
2022-09-30T06:50:27.908Z,90.14
2022-09-30T06:52:59.226Z,89.74
2022-09-30T06:55:27.228Z,89.78
2022-09-30T06:57:55.325Z,89.61
2022-09-30T07:00:22.889Z,89.73
2022-09-30T07:02:49.991Z,89.62
2022-09-30T07:05:19.838Z,90.03
2022-09-30T07:07:46.853Z,90.01
2022-09-30T07:10:13.311Z,89.77
2022-09-30T07:12:40.977Z,89.86
2022-09-30T07:15:12.799Z,90.34
2022-09-30T07:17:40.598Z,90.42
2022-09-30T07:20:08.313Z,90.33
2022-09-30T07:22:34.838Z,90.71
2022-09-30T07:25:03.811Z,91.33
2022-09-30T07:27:33.218Z,91.66
2022-09-30T07:32:47.576Z,93.04
2022-09-30T07:35:14.375Z,93.11
2022-09-30T07:37:40.923Z,93.72
2022-09-30T07:40:08.442Z,93.67
2022-09-30T07:42:39.468Z,94.34
2022-09-30T07:45:06.480Z,94.67
2022-09-30T07:47:32.959Z,94.92
2022-09-30T07:50:00.512Z,94.86
2022-09-30T07:52:26.996Z,95.00
2022-09-30T07:54:53.489Z,95.00
2022-09-30T07:57:21.624Z,95.10
2022-09-30T07:59:48.148Z,95.48
2022-09-30T08:02:18.232Z,95.76
2022-09-30T08:04:45.466Z,95.66
2022-09-30T08:07:14.700Z,95.50
2022-09-30T08:09:41.403Z,95.88
2022-09-30T08:12:08.153Z,95.69
2022-09-30T08:14:34.961Z,95.88
2022-09-30T08:17:01.613Z,95.91
2022-09-30T08:19:30.330Z,96.09
2022-09-30T08:21:57.574Z,95.63
2022-09-30T08:24:26.260Z,95.54
2022-09-30T08:26:55.468Z,95.33
2022-09-30T08:29:49.973Z,95.68
2022-09-30T08:32:08.685Z,94.67
2022-09-30T08:34:35.648Z,94.90
2022-09-30T08:37:07.900Z,94.61
2022-09-30T08:39:35.756Z,94.70
2022-09-30T08:42:37.199Z,94.63
2022-09-30T08:45:07.806Z,93.98
2022-09-30T08:47:57.224Z,93.64
2022-09-30T08:50:33.040Z,93.09
2022-09-30T08:53:05.118Z,92.51
2022-09-30T08:55:43.558Z,92.91
2022-09-30T08:58:26.408Z,92.14
2022-09-30T09:00:58.489Z,91.95
2022-09-30T09:03:31.254Z,91.22
2022-09-30T09:06:20.759Z,90.51
2022-09-30T09:09:29.937Z,89.98
2022-09-30T09:12:22.889Z,88.49
2022-09-30T09:15:22.202Z,87.82
2022-09-30T09:18:23.971Z,87.64
2022-09-30T09:20:56.085Z,85.33
2022-09-30T09:23:22.734Z,84.84
2022-09-30T09:25:53.048Z,84.52
2022-09-30T09:28:37.028Z,82.83
2022-09-30T09:31:04.583Z,83.01
2022-09-30T09:33:35.269Z,81.85
2022-09-30T09:36:16.785Z,82.12
2022-09-30T09:38:56.006Z,81.14
2022-09-30T09:41:40.811Z,80.61
2022-09-30T09:44:39.415Z,81.38
2022-09-30T09:47:17.094Z,79.82
2022-09-30T09:49:45.311Z,79.57
2022-09-30T09:52:12.449Z,78.73
2022-09-30T09:54:48.566Z,79.89
2022-09-30T09:57:18.423Z,79.26
2022-09-30T09:59:54.598Z,78.95
2022-09-30T10:02:30.334Z,78.51
2022-09-30T10:05:00.980Z,77.14
2022-09-30T10:07:30.059Z,76.71
2022-09-30T10:10:23.062Z,77.44
2022-09-30T10:12:50.458Z,76.88
2022-09-30T10:15:23.184Z,76.13
2022-09-30T10:17:59.035Z,75.42
2022-09-30T10:20:37.137Z,75.84
2022-09-30T10:23:19.653Z,74.61
2022-09-30T10:26:09.020Z,74.61
2022-09-30T10:28:50.307Z,75.21
2022-09-30T10:31:38.758Z,75.67
2022-09-30T10:34:29.400Z,74.20
2022-09-30T10:36:58.685Z,73.08
2022-09-30T10:39:31.643Z,74.16
2022-09-30T10:42:10.052Z,72.93
2022-09-30T10:44:46.813Z,73.58
2022-09-30T10:47:17.463Z,73.16
2022-09-30T10:49:51.561Z,73.05
2022-09-30T10:52:26.448Z,73.62
2022-09-30T10:54:55.713Z,73.69
2022-09-30T10:57:37.843Z,73.28
2022-09-30T11:00:21.753Z,72.74
2022-09-30T11:03:00.165Z,70.88
2022-09-30T11:05:32.220Z,69.47
2022-09-30T11:08:19.501Z,69.04
2022-09-30T11:10:56.682Z,68.22
2022-09-30T11:13:51.422Z,69.49
2022-09-30T11:16:24.129Z,68.50
2022-09-30T11:19:00.613Z,69.66
2022-09-30T11:21:36.088Z,68.08
2022-09-30T11:24:14.301Z,68.81
2022-09-30T11:27:04.091Z,69.31
2022-09-30T11:29:58.572Z,69.47
2022-09-30T11:32:43.755Z,69.46
2022-09-30T11:35:44.082Z,69.01
2022-09-30T11:38:37.207Z,67.46
2022-09-30T11:41:11.803Z,65.65
2022-09-30T11:43:47.108Z,64.93
2022-09-30T11:46:33.357Z,64.14
2022-09-30T11:49:14.957Z,65.97
2022-09-30T11:51:51.358Z,64.51
2022-09-30T11:54:32.511Z,66.06
2022-09-30T11:57:17.163Z,63.87
2022-09-30T11:59:46.769Z,64.26
2022-09-30T12:02:38.231Z,64.26
2022-09-30T12:05:15.640Z,63.47
2022-09-30T12:07:49.903Z,63.43
2022-09-30T12:10:20.702Z,63.73
2022-09-30T12:12:51.877Z,63.27
2022-09-30T12:15:23.674Z,63.91
2022-09-30T12:18:14.289Z,65.16
2022-09-30T12:20:55.363Z,65.08
2022-09-30T12:23:37.243Z,65.09
2022-09-30T12:26:05.273Z,65.51
2022-09-30T12:29:03.920Z,65.31
2022-09-30T12:32:10.767Z,65.31
2022-09-30T12:35:08.853Z,64.91
2022-09-30T12:37:59.819Z,63.79
2022-09-30T12:40:52.819Z,61.57
2022-09-30T12:43:41.347Z,63.11
2022-09-30T12:46:25.150Z,64.30
2022-09-30T12:48:54.098Z,64.28
2022-09-30T12:51:32.289Z,65.51
2022-09-30T12:54:05.235Z,64.64
2022-09-30T12:56:34.535Z,64.98
2022-09-30T12:59:01.886Z,65.57
2022-09-30T13:01:32.703Z,64.45
2022-09-30T13:04:02.252Z,64.72
2022-09-30T13:06:48.730Z,65.52
2022-09-30T13:09:22.513Z,64.80
2022-09-30T13:12:12.502Z,64.59
2022-09-30T13:14:44.083Z,63.73
2022-09-30T13:17:14.638Z,62.94
2022-09-30T13:19:51.857Z,63.22
2022-09-30T13:22:20.804Z,62.66
2022-09-30T13:25:05.628Z,63.43
2022-09-30T13:27:48.479Z,63.60
2022-09-30T13:30:17.860Z,63.74
2022-09-30T13:33:26.497Z,63.94
2022-09-30T13:35:56.938Z,63.50
2022-09-30T13:38:40.357Z,64.08
2022-09-30T13:41:16.966Z,63.16
2022-09-30T13:43:51.111Z,62.87
2022-09-30T13:46:43.650Z,62.28
2022-09-30T13:49:40.980Z,62.18
2022-09-30T13:52:16.577Z,60.54
2022-09-30T13:54:47.798Z,61.55
2022-09-30T13:57:27.669Z,62.56
2022-09-30T14:00:06.436Z,62.34
2022-09-30T14:03:03.877Z,62.63
2022-09-30T14:05:42.878Z,61.79
2022-09-30T14:08:46.104Z,62.84
2022-09-30T14:11:23.705Z,62.97
2022-09-30T14:14:33.453Z,63.30
2022-09-30T14:17:36.918Z,63.50
2022-09-30T14:20:09.931Z,63.28
2022-09-30T14:22:38.504Z,63.69
2022-09-30T14:25:19.480Z,63.42
2022-09-30T14:28:04.503Z,63.78
2022-09-30T14:30:59.730Z,64.54
2022-09-30T14:33:30.845Z,63.26
2022-09-30T14:36:03.853Z,63.70
2022-09-30T14:38:37.231Z,62.63
2022-09-30T14:41:12.853Z,63.29
2022-09-30T14:43:45.689Z,63.88
2022-09-30T14:46:25.242Z,64.31
2022-09-30T14:48:53.149Z,63.74
2022-09-30T14:51:23.740Z,62.63
2022-09-30T14:54:07.378Z,62.52
2022-09-30T14:56:36.171Z,62.15
2022-09-30T14:59:20.763Z,62.70
2022-09-30T15:01:52.616Z,62.59
2022-09-30T15:04:26.747Z,62.07
2022-09-30T15:06:54.018Z,62.17
2022-09-30T15:09:37.520Z,62.39
2022-09-30T15:12:07.038Z,62.42
2022-09-30T15:14:33.777Z,62.30
2022-09-30T15:17:05.819Z,62.01
2022-09-30T15:19:35.158Z,61.72
2022-09-30T15:22:04.875Z,62.34
2022-09-30T15:24:32.630Z,63.06
2022-09-30T15:27:01.290Z,63.90
2022-09-30T15:29:28.538Z,64.76
2022-09-30T15:32:20.684Z,63.68
2022-09-30T15:34:47.210Z,63.61
2022-09-30T15:37:22.907Z,64.09
2022-09-30T15:40:26.051Z,64.62
2022-09-30T15:43:02.826Z,65.28
2022-09-30T15:45:36.383Z,65.41
2022-09-30T15:48:22.557Z,66.26
2022-09-30T15:50:53.952Z,65.76
2022-09-30T15:53:26.353Z,66.44
2022-09-30T15:55:55.703Z,66.64
2022-09-30T15:58:32.650Z,66.75
2022-09-30T16:01:44.090Z,66.42
2022-09-30T16:04:16.340Z,66.91
2022-09-30T16:06:56.675Z,67.56
2022-09-30T16:09:35.995Z,67.90
2022-09-30T16:12:08.904Z,68.45
2022-09-30T16:14:48.973Z,68.75
2022-09-30T16:17:19.489Z,68.93
2022-09-30T16:20:01.081Z,68.97
2022-09-30T16:22:33.611Z,69.18
2022-09-30T16:25:12.252Z,69.27
2022-09-30T16:27:39.039Z,69.68
2022-09-30T16:30:07.091Z,70.41
2022-09-30T16:32:38.722Z,70.52
2022-09-30T16:35:06.446Z,71.23
2022-09-30T16:37:33.134Z,71.54
2022-09-30T16:40:10.600Z,71.35
2022-09-30T16:42:37.079Z,71.96
2022-09-30T16:45:04.458Z,72.30
2022-09-30T16:47:30.912Z,72.26
2022-09-30T16:49:57.713Z,72.41
2022-09-30T16:52:26.749Z,72.39
2022-09-30T16:54:53.246Z,72.73
2022-09-30T16:57:19.740Z,72.79
2022-09-30T16:59:46.249Z,72.84
2022-09-30T17:02:14.673Z,73.36
2022-09-30T17:04:41.524Z,73.60
2022-09-30T17:07:11.430Z,73.88
2022-09-30T17:09:39.553Z,74.21
2022-09-30T17:12:06.246Z,74.01
2022-09-30T17:14:33.311Z,74.50
2022-09-30T17:16:59.869Z,74.63
2022-09-30T17:19:30.103Z,74.80
2022-09-30T17:21:56.629Z,75.31
2022-09-30T17:24:23.150Z,75.30
2022-09-30T17:26:50.939Z,75.65
2022-09-30T17:29:32.047Z,75.65
2022-09-30T17:31:59.386Z,75.81
2022-09-30T17:34:27.820Z,76.07
2022-09-30T17:36:55.018Z,76.00
2022-09-30T17:39:21.510Z,76.14
2022-09-30T17:42:06.510Z,75.99
2022-09-30T17:44:33.183Z,76.57
2022-09-30T17:47:00.620Z,76.54
2022-09-30T17:49:32.522Z,76.80
2022-09-30T17:51:59.167Z,77.16
2022-09-30T17:54:27.022Z,77.52
2022-09-30T17:56:54.173Z,78.05
2022-09-30T17:59:21.958Z,77.61
2022-09-30T18:01:50.628Z,77.62
2022-09-30T18:04:21.879Z,77.71
2022-09-30T18:06:48.426Z,78.06
2022-09-30T18:09:15.185Z,78.27
2022-09-30T18:11:43.792Z,78.10
2022-09-30T18:14:12.080Z,78.17
2022-09-30T18:16:39.091Z,78.04
2022-09-30T18:19:07.262Z,78.24
2022-09-30T18:21:36.517Z,78.30
2022-09-30T18:24:06.560Z,78.51
2022-09-30T18:26:35.642Z,78.64
2022-09-30T18:29:03.838Z,78.27
2022-09-30T18:31:37.301Z,78.59
2022-09-30T18:34:04.952Z,78.61
2022-09-30T18:36:32.681Z,78.71
2022-09-30T18:39:00.986Z,78.50
2022-09-30T18:41:28.247Z,78.62
2022-09-30T18:44:02.818Z,78.89
2022-09-30T18:46:30.872Z,78.80
2022-09-30T18:48:57.769Z,78.47
2022-09-30T18:51:25.029Z,78.43
2022-09-30T18:53:57.552Z,78.29
2022-09-30T18:56:31.840Z,78.07
2022-09-30T18:59:00.230Z,78.03
2022-09-30T19:01:27.792Z,77.81
2022-09-30T19:03:54.462Z,78.16
2022-09-30T19:06:21.190Z,78.19
2022-09-30T19:08:48.776Z,78.31
2022-09-30T19:11:17.569Z,78.18
2022-09-30T19:13:48.015Z,78.18
2022-09-30T19:16:17.625Z,78.24
2022-09-30T19:18:44.604Z,78.33
2022-09-30T19:21:13.248Z,78.27
2022-09-30T19:23:40.191Z,78.21
2022-09-30T19:26:08.241Z,78.58
2022-09-30T19:28:38.167Z,78.08
2022-09-30T19:31:07.630Z,77.96
2022-09-30T19:33:39.845Z,77.98
2022-09-30T19:36:14.894Z,78.16
2022-09-30T19:38:46.179Z,77.79
2022-09-30T19:41:15.643Z,77.49
2022-09-30T19:43:49.113Z,77.62
2022-09-30T19:46:16.144Z,77.41
2022-09-30T19:48:42.686Z,77.26
2022-09-30T19:51:14.381Z,76.95
2022-09-30T19:53:46.105Z,76.65
2022-09-30T19:56:19.617Z,76.73
2022-09-30T19:58:52.029Z,76.38
2022-09-30T20:01:22.492Z,76.59
2022-09-30T20:03:49.058Z,76.82
2022-09-30T20:06:16.820Z,76.40
2022-09-30T20:08:49.049Z,75.81
2022-09-30T20:11:19.836Z,75.26
2022-09-30T20:13:49.768Z,74.76
2022-09-30T20:16:16.615Z,75.04
2022-09-30T20:18:43.835Z,74.79
2022-09-30T20:21:13.242Z,74.64
2022-09-30T20:23:40.895Z,74.29
2022-09-30T20:26:15.728Z,74.28
2022-09-30T20:28:42.181Z,73.93
2022-09-30T20:31:11.177Z,73.84
2022-09-30T20:33:39.452Z,73.84
2022-09-30T20:36:07.682Z,73.80
2022-09-30T20:38:34.884Z,73.74
2022-09-30T20:41:03.112Z,73.68
2022-09-30T20:43:32.049Z,73.61
2022-09-30T20:46:08.258Z,73.89
2022-09-30T20:48:36.705Z,73.53
2022-09-30T20:51:11.050Z,73.90
2022-09-30T20:53:39.773Z,73.72
2022-09-30T20:56:12.794Z,73.74
2022-09-30T20:58:40.006Z,73.75
2022-09-30T21:01:09.498Z,74.11
2022-09-30T21:03:38.159Z,74.21
2022-09-30T21:06:07.377Z,73.88
2022-09-30T21:08:38.921Z,74.17
2022-09-30T21:11:07.378Z,73.81
2022-09-30T21:13:34.027Z,73.83
2022-09-30T21:16:02.974Z,74.11
2022-09-30T21:18:30.315Z,74.35
2022-09-30T21:20:58.846Z,74.34
2022-09-30T21:23:26.469Z,74.79
2022-09-30T21:26:04.210Z,75.21
2022-09-30T21:28:31.266Z,76.25
2022-09-30T21:30:58.024Z,76.71
2022-09-30T21:33:25.872Z,77.43
2022-09-30T21:36:03.801Z,77.63
2022-09-30T21:38:31.477Z,78.65
2022-09-30T21:41:00.416Z,79.03
2022-09-30T21:43:31.419Z,79.59
2022-09-30T21:46:08.797Z,80.14
2022-09-30T21:48:37.818Z,80.46
2022-09-30T21:51:06.293Z,81.50
2022-09-30T21:53:33.248Z,81.84
2022-09-30T21:56:04.439Z,82.11
2022-09-30T21:58:32.881Z,82.41
2022-09-30T22:01:02.295Z,83.46
2022-09-30T22:03:37.372Z,83.62
2022-09-30T22:06:07.425Z,84.18
2022-09-30T22:08:36.359Z,84.66
2022-09-30T22:11:06.811Z,84.84
2022-09-30T22:13:34.399Z,85.10
2022-09-30T22:16:06.962Z,84.58
2022-09-30T22:18:33.958Z,84.98
2022-09-30T22:21:08.992Z,85.09
2022-09-30T22:23:36.020Z,86.31
2022-09-30T22:26:22.542Z,86.09
2022-09-30T22:28:55.229Z,86.46
2022-09-30T22:31:24.785Z,86.24
2022-09-30T22:34:12.653Z,86.79
2022-09-30T22:36:57.867Z,87.17
2022-09-30T22:39:25.181Z,87.71
2022-09-30T22:41:54.232Z,87.57
2022-09-30T22:44:25.380Z,87.78
2022-09-30T22:46:52.974Z,88.09
2022-09-30T22:49:19.614Z,88.54
2022-09-30T22:51:49.579Z,88.30
2022-09-30T22:54:16.105Z,88.22
2022-09-30T22:56:42.558Z,88.71
2022-09-30T22:59:09.035Z,88.45
2022-09-30T23:01:35.780Z,88.93
2022-09-30T23:04:03.099Z,89.43
2022-09-30T23:06:30.411Z,89.51
2022-09-30T23:08:56.929Z,89.63
2022-09-30T23:11:23.424Z,90.13
2022-09-30T23:13:52.665Z,89.99
2022-09-30T23:16:22.137Z,90.05
2022-09-30T23:18:48.608Z,90.44
2022-09-30T23:21:18.654Z,90.14
2022-09-30T23:23:48.059Z,90.55
2022-09-30T23:26:20.219Z,90.64
2022-09-30T23:28:46.964Z,90.87
2022-09-30T23:31:15.899Z,91.32
2022-09-30T23:33:50.563Z,91.01
2022-09-30T23:36:19.601Z,91.11
2022-09-30T23:38:46.935Z,91.60
2022-09-30T23:41:14.069Z,91.53
2022-09-30T23:43:45.742Z,92.00
2022-09-30T23:46:12.621Z,91.55
2022-09-30T23:48:39.927Z,92.02
2022-09-30T23:51:06.842Z,91.99
2022-09-30T23:53:34.507Z,92.04
2022-09-30T23:56:09.541Z,92.09
2022-09-30T23:58:36.415Z,92.41
